Louisville, KY (40223)

2:45 PM EDT on October 31, 2014 (GMT -0400)
Owl Creek Country Club | Change Station
CLOSE
Current Station
Personal Weather Station
Location: Anchorage, KY
Elevation: 730 ft
Nearby Weather Stations
Active Advisory: Freeze Warning, Special Statement

Elev 730 ft 38.28 °N, 85.53 °W | Updated 1 second ago

Rain
Rain
40.5 °F
Feels Like 35 °F
N
9.0
Wind Variable Wind from NNW
Gusts 19.0 mph

Today
High -- | Low -- °F
--% Chance of Precip.
Yesterday
High -- | Low -- °F
Precip. -- in
8:07 AM 6:43 PM
First Quarter, 58% visible
Pressure 30.00 in
Visibility 10.0 miles
Clouds Scattered Clouds 1800 ft
Mostly Cloudy 3500 ft
Overcast 5000 ft
Windchill 35 °F
Dew Point 38 °F
Humidity 92%
Rainfall 0.09 in
Snow Depth Not available.
UV 1 out of 12
Pollen .30 out of 12
Air Quality Not available.
Flu Activity Not available.
SPECI KLOU 311836Z 33012G23KT 10SM -RA SCT018 BKN035 OVC050 06/03 A3000 RMK AO2 P0001 T00560028

More Conditions Fewer Conditions

Pressure 30.00 in
Visibility 10.0 miles
Clouds Scattered Clouds 1800 ft
Mostly Cloudy 3500 ft
Overcast 5000 ft
Windchill 35 °F
Dew Point 38 °F
Humidity 92%
Rainfall 0.09 in
Snow Depth Not available.
UV 1 out of 12
Pollen .30 out of 12
Air Quality Not available.
Flu Activity Not available.
SPECI KLOU 311836Z 33012G23KT 10SM -RA SCT018 BKN035 OVC050 06/03 A3000 RMK AO2 P0001 T00560028

More Conditions Fewer Conditions

10-Day Weather Forecast

Almanac

Astronomy

Oct. 31, 2014 Rise Set
Actual Time
Civil Twilight
Nautical Twilight
Astronomical Twilight
Moon
Length of Visible Light
Length of Day
Tomorrow will be .
, % of the Moon is Illuminated

Today's Extremes

State Highs State Lows

Community

WunderPhotos

Upload Photos

1,766,690 photos uploaded!

WunderBlogs® & News

Nearby

Air Quality

  Air Quality AQ Index Pollutant
Not available.

Snow Depth

Station Depth Elevation

Earthquake Activity

City Distance Mag. Time & Date
Minimum magnitude displayed is 2.5.

Coastal Water Temperatures

Place Temperature

Nearby Weather Stations